Time;durP1;ratioP1;P1;durP2;ratioP2;P2;SDS_P1;SDS_P2;PMS_P1;PMS_P2;Temp;Humidity;BMP_temperature;BMP_pressure;BME280_temperature;BME280_humidity;BME280_pressure;Samples;Min_cycle;Max_cycle;Signal;HPM_P1;HPM_P2
2024/04/26 00:01:17;;;;;;;29.20;28.20;;;21.50;1.00;;;;;;2612024;54;20170;-60
2024/04/26 00:03:43;;;;;;;30.23;29.13;;;21.50;1.00;;;;;;2612957;54;20171;-62
2024/04/26 00:06:09;;;;;;;30.00;28.90;;;21.50;1.00;;;;;;2612666;54;20406;-75
2024/04/26 00:08:37;;;;;;;29.40;28.33;;;21.50;1.00;;;;;;2613656;54;20443;-69
2024/04/26 00:11:05;;;;;;;30.40;29.30;;;21.40;1.00;;;;;;2614567;54;20151;-69
2024/04/26 00:13:34;;;;;;;29.33;28.30;;;21.50;1.00;;;;;;2615441;39;20512;-69
2024/04/26 00:16:03;;;;;;;29.50;28.40;;;21.40;1.00;;;;;;2616974;47;20407;-68
2024/04/26 00:18:32;;;;;;;29.47;28.37;;;21.40;1.00;;;;;;2614907;54;20431;-75
2024/04/26 00:21:01;;;;;;;29.40;28.33;;;21.40;1.00;;;;;;2614829;54;20794;-75
2024/04/26 00:23:27;;;;;;;29.43;28.33;;;21.40;1.00;;;;;;2615340;54;20419;-75
2024/04/26 00:25:53;;;;;;;31.63;30.53;;;21.40;1.00;;;;;;2614562;54;20395;-74
2024/04/26 00:28:18;;;;;;;30.40;29.30;;;21.40;1.00;;;;;;2614961;39;20819;-61
2024/04/26 00:30:44;;;;;;;30.33;29.23;;;21.40;1.00;;;;;;2614499;54;20181;-62
2024/04/26 00:33:10;;;;;;;30.77;29.67;;;21.40;1.00;;;;;;2614713;31;20612;-62
2024/04/26 00:35:35;;;;;;;29.20;28.10;;;21.30;1.00;;;;;;2615009;54;20161;-62
2024/04/26 00:38:01;;;;;;;29.90;28.80;;;21.40;1.00;;;;;;2614186;54;20189;-62
2024/04/26 00:40:27;;;;;;;30.07;28.97;;;21.30;1.00;;;;;;2614134;54;20190;-62
2024/04/26 00:42:54;;;;;;;29.97;28.87;;;21.30;1.00;;;;;;2613928;54;20170;-62
2024/04/26 00:45:19;;;;;;;29.67;28.57;;;21.30;1.00;;;;;;2614219;54;20178;-62
2024/04/26 00:47:46;;;;;;;30.50;29.40;;;21.30;1.00;;;;;;2614314;54;20940;-63
2024/04/26 00:50:13;;;;;;;29.30;28.23;;;21.30;1.00;;;;;;2614561;54;20163;-62
2024/04/26 00:52:39;;;;;;;30.10;29.00;;;21.30;1.00;;;;;;2614158;54;20435;-60
2024/04/26 00:55:05;;;;;;;29.93;28.83;;;21.30;1.00;;;;;;2614437;54;20979;-60
2024/04/26 00:57:31;;;;;;;29.77;28.67;;;21.30;1.00;;;;;;2614419;54;20411;-63
2024/04/26 00:59:58;;;;;;;32.67;31.37;;;21.30;1.00;;;;;;2614500;54;20396;-62
2024/04/26 01:02:25;;;;;;;30.20;29.10;;;21.20;1.00;;;;;;2612674;54;20415;-63
2024/04/26 01:04:51;;;;;;;30.20;29.10;;;21.20;1.00;;;;;;2612591;54;20423;-62
2024/04/26 01:07:17;;;;;;;29.53;28.43;;;21.20;1.00;;;;;;2612772;54;20418;-62
2024/04/26 01:09:43;;;;;;;30.07;28.97;;;21.20;1.00;;;;;;2613102;54;20442;-61
2024/04/26 01:12:09;;;;;;;29.27;28.17;;;21.20;1.00;;;;;;2614269;54;20158;-63
2024/04/26 01:14:34;;;;;;;29.60;28.50;;;21.20;1.00;;;;;;2614911;47;20170;-62
2024/04/26 01:17:00;;;;;;;28.93;27.90;;;21.20;1.00;;;;;;2614540;54;20162;-64
2024/04/26 01:19:26;;;;;;;28.87;27.80;;;21.20;1.00;;;;;;2614023;54;20158;-64
2024/04/26 01:21:57;;;;;;;29.40;28.30;;;21.20;1.00;;;;;;2614304;39;20673;-65
2024/04/26 01:24:23;;;;;;;30.10;29.00;;;21.20;1.00;;;;;;2613960;54;20219;-65
2024/04/26 01:26:48;;;;;;;30.30;29.20;;;21.20;1.00;;;;;;2614716;54;20407;-74
2024/04/26 01:29:14;;;;;;;29.40;28.30;;;21.10;1.00;;;;;;2614668;54;20174;-74
2024/04/26 01:31:40;;;;;;;28.43;27.43;;;21.10;1.00;;;;;;2614805;47;20799;-74
2024/04/26 01:34:06;;;;;;;29.77;28.67;;;21.10;1.00;;;;;;2614513;54;20165;-75
2024/04/26 01:36:32;;;;;;;30.03;28.93;;;21.10;1.00;;;;;;2614688;54;20419;-65
2024/04/26 01:38:57;;;;;;;29.43;28.33;;;21.10;1.00;;;;;;2614510;54;20678;-65
2024/04/26 01:41:23;;;;;;;30.27;29.17;;;21.10;1.00;;;;;;2614050;54;20151;-66
2024/04/26 01:43:49;;;;;;;30.30;29.20;;;21.10;1.00;;;;;;2614410;54;20162;-65
2024/04/26 01:46:14;;;;;;;30.90;29.80;;;21.10;1.00;;;;;;2614557;39;20553;-65
2024/04/26 01:48:40;;;;;;;30.30;29.20;;;21.10;1.00;;;;;;2614255;54;20243;-65
2024/04/26 01:51:06;;;;;;;29.83;28.73;;;21.10;1.00;;;;;;2614205;54;20174;-65
2024/04/26 01:53:31;;;;;;;29.80;28.70;;;21.10;1.00;;;;;;2614462;39;20631;-65
2024/04/26 01:55:57;;;;;;;29.10;28.10;;;21.00;1.00;;;;;;2614480;54;20731;-65
2024/04/26 01:58:22;;;;;;;30.10;29.00;;;21.00;1.00;;;;;;2614354;54;20682;-64
2024/04/26 02:00:48;;;;;;;29.40;28.30;;;21.00;1.00;;;;;;2613238;54;20301;-65
2024/04/26 02:03:14;;;;;;;29.70;28.60;;;21.00;1.00;;;;;;2612782;47;20169;-65
2024/04/26 02:05:40;;;;;;;30.10;29.00;;;21.00;1.00;;;;;;2612634;54;20158;-65
2024/04/26 02:08:05;;;;;;;29.80;28.70;;;21.00;1.00;;;;;;2613251;54;20154;-64
2024/04/26 02:10:31;;;;;;;29.33;28.23;;;21.00;1.00;;;;;;2613256;54;20143;-64
2024/04/26 02:12:57;;;;;;;29.60;28.50;;;21.00;1.00;;;;;;2614092;54;20163;-64
2024/04/26 02:15:22;;;;;;;31.00;29.90;;;21.00;1.00;;;;;;2614304;54;20143;-65
2024/04/26 02:17:48;;;;;;;30.10;29.00;;;21.00;1.00;;;;;;2614222;54;20166;-65
2024/04/26 02:20:14;;;;;;;29.30;28.30;;;21.00;1.00;;;;;;2614199;39;20546;-65
2024/04/26 02:22:40;;;;;;;29.13;28.13;;;21.00;1.00;;;;;;2614517;54;20167;-66
2024/04/26 02:25:05;;;;;;;29.10;28.10;;;21.00;1.00;;;;;;2613988;54;20766;-65
2024/04/26 02:27:31;;;;;;;29.53;28.47;;;21.00;1.00;;;;;;2614609;54;20190;-69
2024/04/26 02:29:57;;;;;;;29.30;28.30;;;20.90;1.00;;;;;;2614909;54;20186;-70
2024/04/26 02:32:23;;;;;;;28.80;27.80;;;20.90;1.00;;;;;;2615307;39;20628;-71
2024/04/26 02:34:48;;;;;;;29.10;28.10;;;20.90;1.00;;;;;;2614022;31;20936;-72
2024/04/26 02:37:14;;;;;;;30.20;29.10;;;20.90;1.00;;;;;;2613924;54;20167;-61
2024/04/26 02:39:40;;;;;;;29.80;28.70;;;20.90;1.00;;;;;;2613911;54;20932;-62
2024/04/26 02:42:06;;;;;;;29.83;28.73;;;20.90;1.00;;;;;;2613923;54;20545;-61
2024/04/26 02:44:31;;;;;;;29.40;28.40;;;20.90;1.00;;;;;;2614131;54;20672;-61
2024/04/26 02:46:57;;;;;;;30.40;29.30;;;20.90;1.00;;;;;;2614182;54;20143;-65
2024/04/26 02:49:22;;;;;;;30.10;29.00;;;20.90;1.00;;;;;;2613421;54;20154;-65
2024/04/26 02:51:48;;;;;;;29.83;28.73;;;20.90;1.00;;;;;;2614018;54;20181;-64
2024/04/26 02:54:14;;;;;;;30.10;29.00;;;20.90;1.00;;;;;;2613655;54;20779;-65
2024/04/26 02:56:39;;;;;;;30.00;28.90;;;20.90;1.00;;;;;;2614808;39;20446;-66
2024/04/26 02:59:05;;;;;;;31.27;30.17;;;20.80;1.00;;;;;;2613551;47;20690;-65
2024/04/26 03:01:33;;;;;;;31.47;30.33;;;20.80;1.00;;;;;;2612573;54;21199;-65
2024/04/26 03:03:59;;;;;;;30.20;29.10;;;20.80;1.00;;;;;;2612219;54;20154;-65
2024/04/26 03:06:25;;;;;;;30.90;29.80;;;20.80;1.00;;;;;;2613041;54;20430;-65
2024/04/26 03:08:50;;;;;;;30.60;29.50;;;20.80;1.00;;;;;;2613532;39;20609;-64
2024/04/26 03:11:19;;;;;;;31.40;30.30;;;20.80;1.00;;;;;;2612696;54;20294;-64
2024/04/26 03:13:45;;;;;;;31.40;30.30;;;20.80;1.00;;;;;;2613334;54;20155;-65
2024/04/26 03:16:11;;;;;;;31.63;30.53;;;20.80;1.00;;;;;;2614262;54;20446;-65
2024/04/26 03:18:37;;;;;;;31.27;30.17;;;20.80;1.00;;;;;;2614165;47;20403;-66
2024/04/26 03:21:03;;;;;;;30.60;29.50;;;20.80;1.00;;;;;;2614079;54;20542;-65
2024/04/26 03:23:29;;;;;;;31.00;29.90;;;20.80;1.00;;;;;;2614155;54;20135;-65
2024/04/26 03:25:54;;;;;;;31.00;29.90;;;20.80;1.00;;;;;;2614663;39;20588;-65
2024/04/26 03:28:21;;;;;;;30.23;29.13;;;20.80;1.00;;;;;;2614868;39;20537;-65
2024/04/26 03:30:47;;;;;;;29.97;28.87;;;20.80;1.00;;;;;;2613916;54;20175;-65
2024/04/26 03:33:13;;;;;;;30.00;28.90;;;20.80;1.00;;;;;;2613946;54;20422;-63
2024/04/26 03:35:39;;;;;;;29.83;28.73;;;20.80;1.00;;;;;;2613859;54;20177;-65
2024/04/26 03:38:08;;;;;;;30.30;29.20;;;20.80;1.00;;;;;;2613747;47;20522;-75
2024/04/26 03:40:34;;;;;;;30.77;29.67;;;20.80;1.00;;;;;;2613568;54;20521;-76
2024/04/26 03:43:01;;;;;;;30.50;29.40;;;20.80;1.00;;;;;;2613815;51;20612;-76
2024/04/26 03:45:27;;;;;;;30.53;29.43;;;20.80;1.00;;;;;;2614260;47;20174;-75
2024/04/26 03:47:52;;;;;;;30.70;29.60;;;20.80;1.00;;;;;;2614193;39;20878;-62
2024/04/26 03:50:18;;;;;;;30.47;29.37;;;20.80;1.00;;;;;;2613567;54;20238;-62
2024/04/26 03:52:44;;;;;;;30.47;29.37;;;20.70;1.00;;;;;;2613518;54;20206;-62
2024/04/26 03:55:09;;;;;;;29.63;28.63;;;20.70;1.00;;;;;;2613974;54;20679;-61
2024/04/26 03:57:35;;;;;;;30.07;28.97;;;20.70;1.00;;;;;;2613978;54;20159;-66
2024/04/26 04:00:01;;;;;;;29.97;28.90;;;20.70;1.00;;;;;;2613126;54;20201;-66
2024/04/26 04:02:26;;;;;;;29.90;28.80;;;20.70;1.00;;;;;;2614194;54;20161;-66
2024/04/26 04:04:52;;;;;;;30.60;29.50;;;20.70;1.00;;;;;;2614239;47;20173;-67
2024/04/26 04:07:18;;;;;;;30.47;29.37;;;20.70;1.00;;;;;;2614741;46;20178;-67
2024/04/26 04:09:44;;;;;;;29.30;28.30;;;20.70;1.00;;;;;;2615361;54;20230;-67
2024/04/26 04:12:09;;;;;;;31.27;30.17;;;20.70;1.00;;;;;;2615739;54;20797;-67
2024/04/26 04:14:35;;;;;;;30.53;29.43;;;20.70;1.00;;;;;;2615331;54;20395;-67
2024/04/26 04:17:01;;;;;;;31.30;30.20;;;20.70;1.00;;;;;;2615885;39;20584;-66
2024/04/26 04:19:27;;;;;;;31.13;30.00;;;20.70;1.00;;;;;;2615553;54;20150;-67
2024/04/26 04:21:53;;;;;;;32.00;30.80;;;20.70;1.00;;;;;;2615635;54;21028;-67
2024/04/26 04:24:19;;;;;;;31.50;30.30;;;20.70;1.00;;;;;;2616060;54;20421;-66
2024/04/26 04:26:44;;;;;;;31.33;30.13;;;20.70;1.00;;;;;;2615180;54;20146;-67
2024/04/26 04:29:10;;;;;;;31.60;30.40;;;20.70;1.00;;;;;;2615453;54;20190;-68
2024/04/26 04:31:36;;;;;;;30.93;29.83;;;20.70;1.00;;;;;;2615983;39;20564;-67
2024/04/26 04:34:02;;;;;;;31.40;30.30;;;20.70;1.00;;;;;;2615994;54;20158;-68
2024/04/26 04:36:30;;;;;;;31.47;30.37;;;20.70;1.00;;;;;;2616190;54;20151;-68
2024/04/26 04:38:56;;;;;;;31.67;30.57;;;20.70;1.00;;;;;;2615985;54;20154;-68
2024/04/26 04:41:21;;;;;;;32.90;31.70;;;20.70;1.00;;;;;;2615673;54;20395;-68
2024/04/26 04:43:47;;;;;;;33.13;31.93;;;20.70;1.00;;;;;;2615714;54;20151;-67
2024/04/26 04:46:13;;;;;;;31.50;30.40;;;20.60;1.00;;;;;;2615008;54;20153;-66
2024/04/26 04:48:38;;;;;;;32.33;31.23;;;20.60;1.00;;;;;;2615804;54;20165;-66
2024/04/26 04:51:05;;;;;;;31.70;30.60;;;20.60;1.00;;;;;;2615978;39;20631;-65
2024/04/26 04:53:31;;;;;;;31.50;30.40;;;20.60;1.00;;;;;;2615543;46;20194;-65
2024/04/26 04:55:57;;;;;;;30.17;29.10;;;20.60;1.00;;;;;;2615441;47;20435;-64
2024/04/26 04:58:23;;;;;;;31.00;29.90;;;20.60;1.00;;;;;;2614985;54;20290;-61
2024/04/26 05:00:48;;;;;;;30.70;29.60;;;20.60;1.00;;;;;;2613172;54;20178;-60
2024/04/26 05:03:14;;;;;;;31.30;30.20;;;20.60;1.00;;;;;;2613821;54;20162;-61
2024/04/26 05:05:40;;;;;;;30.40;29.30;;;20.60;1.00;;;;;;2613767;54;20163;-61
2024/04/26 05:08:06;;;;;;;31.30;30.20;;;20.60;1.00;;;;;;2615514;54;20151;-66
2024/04/26 05:10:31;;;;;;;31.17;30.07;;;20.60;1.00;;;;;;2615682;46;20170;-66
2024/04/26 05:12:57;;;;;;;31.60;30.50;;;20.60;1.00;;;;;;2613666;54;20249;-66
2024/04/26 05:15:23;;;;;;;34.40;33.10;;;20.60;1.00;;;;;;2614827;54;20209;-65
2024/04/26 05:17:48;;;;;;;30.20;29.13;;;20.60;1.00;;;;;;2614495;54;20173;-65
2024/04/26 05:20:14;;;;;;;31.17;30.07;;;20.60;1.00;;;;;;2613955;54;20153;-65
2024/04/26 05:22:40;;;;;;;30.67;29.57;;;20.60;1.00;;;;;;2615082;39;20577;-64
2024/04/26 05:25:06;;;;;;;28.70;27.70;;;20.60;1.00;;;;;;2613974;54;20185;-62
2024/04/26 05:27:31;;;;;;;30.50;29.40;;;20.60;1.00;;;;;;2614448;47;20169;-63
2024/04/26 05:29:57;;;;;;;31.00;29.90;;;20.60;1.00;;;;;;2614381;46;20408;-63
2024/04/26 05:32:23;;;;;;;35.80;34.50;;;20.60;1.00;;;;;;2614151;54;20281;-60
2024/04/26 05:34:49;;;;;;;33.40;32.20;;;20.80;1.00;;;;;;2613938;54;20159;-61
2024/04/26 05:37:14;;;;;;;28.80;27.80;;;21.40;1.00;;;;;;2612956;47;20297;-63
2024/04/26 05:39:40;;;;;;;27.47;26.57;;;22.00;1.00;;;;;;2614169;54;20637;-63
2024/04/26 05:42:06;;;;;;;26.97;26.07;;;22.00;1.00;;;;;;2613127;54;20162;-64
2024/04/26 05:44:32;;;;;;;35.03;33.83;;;21.70;1.00;;;;;;2613059;54;20139;-63
2024/04/26 05:46:57;;;;;;;32.53;31.43;;;21.70;1.00;;;;;;2613698;54;20174;-63
2024/04/26 05:49:23;;;;;;;33.80;32.60;;;21.90;1.00;;;;;;2613843;54;20284;-62
2024/04/26 05:51:49;;;;;;;32.47;31.27;;;22.20;1.00;;;;;;2614796;54;20178;-64
2024/04/26 05:54:14;;;;;;;35.90;34.60;;;22.40;1.00;;;;;;2614135;46;20178;-60
2024/04/26 05:56:40;;;;;;;37.60;36.20;;;22.20;1.00;;;;;;2613815;54;20201;-64
2024/04/26 05:59:06;;;;;;;36.60;35.30;;;22.10;1.00;;;;;;2612813;50;20162;-64
2024/04/26 06:01:34;;;;;;;37.07;35.77;;;22.10;1.00;;;;;;2613703;47;20178;-68
2024/04/26 06:04:00;;;;;;;35.63;34.43;;;22.20;1.00;;;;;;2614534;54;20173;-67
2024/04/26 06:06:25;;;;;;;36.00;34.60;;;22.20;1.00;;;;;;2614538;47;20419;-62
2024/04/26 06:08:51;;;;;;;34.27;33.07;;;22.20;1.00;;;;;;2614365;39;20832;-63
2024/04/26 06:11:17;;;;;;;32.50;31.30;;;22.30;1.00;;;;;;2613951;54;20695;-64
2024/04/26 06:13:43;;;;;;;32.97;31.77;;;22.30;1.00;;;;;;2614068;47;20170;-64
2024/04/26 06:16:08;;;;;;;33.07;31.87;;;22.30;1.00;;;;;;2614032;46;20155;-65
2024/04/26 06:18:35;;;;;;;32.97;31.77;;;22.30;1.00;;;;;;2613970;54;20163;-61
2024/04/26 06:21:01;;;;;;;33.17;31.97;;;22.20;1.00;;;;;;2613729;54;20147;-63
2024/04/26 06:23:27;;;;;;;34.17;32.97;;;22.20;1.00;;;;;;2613474;54;20562;-61
2024/04/26 06:25:52;;;;;;;34.00;32.80;;;22.20;1.00;;;;;;2613635;54;20427;-62
2024/04/26 06:28:18;;;;;;;34.87;33.67;;;22.30;1.00;;;;;;2613643;54;20462;-61
2024/04/26 06:30:44;;;;;;;34.50;33.30;;;22.40;1.00;;;;;;2614588;54;20400;-61
2024/04/26 06:33:10;;;;;;;33.67;32.47;;;22.40;1.00;;;;;;2614098;54;20154;-62
2024/04/26 06:35:35;;;;;;;29.90;28.90;;;22.40;1.00;;;;;;2613620;54;20588;-64
2024/04/26 06:38:01;;;;;;;32.23;31.13;;;22.20;1.00;;;;;;2612419;54;20679;-63
2024/04/26 06:40:27;;;;;;;32.83;31.73;;;22.20;1.00;;;;;;2612524;54;20163;-64
2024/04/26 06:42:52;;;;;;;33.10;31.90;;;22.40;1.00;;;;;;2612456;54;20162;-63
2024/04/26 06:45:18;;;;;;;32.10;31.00;;;22.50;1.00;;;;;;2612422;54;20139;-63
2024/04/26 06:47:44;;;;;;;32.50;31.40;;;22.50;1.00;;;;;;2611798;54;20173;-62
2024/04/26 06:50:10;;;;;;;29.00;28.00;;;22.60;1.00;;;;;;2612335;54;20163;-63
2024/04/26 06:52:35;;;;;;;29.73;28.73;;;22.60;1.00;;;;;;2608029;54;20270;-62
2024/04/26 06:55:01;;;;;;;29.53;28.53;;;22.20;1.00;;;;;;2612871;54;20149;-62
2024/04/26 06:57:27;;;;;;;28.80;27.90;;;21.90;1.00;;;;;;2611758;54;20161;-62
2024/04/26 06:59:52;;;;;;;28.97;27.97;;;21.70;1.00;;;;;;2610915;54;20250;-62
2024/04/26 07:02:18;;;;;;;30.00;29.00;;;21.40;1.00;;;;;;2610455;54;20182;-60
2024/04/26 07:04:44;;;;;;;29.80;28.80;;;21.40;1.00;;;;;;2612313;54;20236;-62
2024/04/26 07:07:09;;;;;;;28.80;27.90;;;21.30;1.00;;;;;;2612218;51;20157;-65
2024/04/26 07:09:35;;;;;;;28.53;27.63;;;21.20;1.00;;;;;;2612324;54;20751;-65
2024/04/26 07:12:01;;;;;;;28.60;27.70;;;21.20;1.00;;;;;;2612059;54;20676;-66
2024/04/26 07:14:27;;;;;;;29.40;28.50;;;21.10;1.00;;;;;;2611463;54;20143;-67
2024/04/26 07:16:52;;;;;;;28.57;27.67;;;21.10;1.00;;;;;;2612199;54;20166;-79
2024/04/26 07:19:19;;;;;;;28.63;27.73;;;21.10;1.00;;;;;;2612003;54;20154;-80
2024/04/26 07:21:45;;;;;;;29.50;28.50;;;21.10;1.00;;;;;;2612348;39;20276;-80
2024/04/26 07:24:10;;;;;;;29.83;28.83;;;21.00;1.00;;;;;;2613318;54;20384;-79
2024/04/26 07:26:36;;;;;;;30.37;29.37;;;21.00;1.00;;;;;;2612503;49;20201;-62
2024/04/26 07:29:03;;;;;;;29.53;28.53;;;21.00;1.00;;;;;;2611531;54;20139;-62
2024/04/26 07:31:30;;;;;;;29.27;28.30;;;21.00;1.00;;;;;;2611809;54;20174;-64
2024/04/26 07:33:55;;;;;;;30.07;29.07;;;21.00;1.00;;;;;;2611526;54;20403;-61
2024/04/26 07:36:21;;;;;;;29.90;28.90;;;20.90;1.00;;;;;;2611510;47;20409;-78
2024/04/26 07:38:47;;;;;;;30.30;29.30;;;20.90;1.00;;;;;;2613422;47;20790;-79
2024/04/26 07:41:15;;;;;;;29.60;28.60;;;20.90;1.00;;;;;;2612000;54;20234;-80
2024/04/26 07:43:41;;;;;;;31.10;30.10;;;20.90;1.00;;;;;;2611701;54;20179;-79
2024/04/26 07:46:07;;;;;;;31.57;30.57;;;20.90;1.00;;;;;;2612754;54;21211;-79
2024/04/26 07:48:33;;;;;;;30.13;29.13;;;20.90;1.00;;;;;;2612442;54;20515;-79
2024/04/26 07:50:59;;;;;;;29.90;28.90;;;20.90;1.00;;;;;;2612024;54;20524;-79
2024/04/26 07:53:24;;;;;;;30.80;29.80;;;20.90;1.00;;;;;;2612313;46;20220;-80
2024/04/26 07:55:50;;;;;;;31.17;30.17;;;20.90;1.00;;;;;;2611832;54;20174;-81
2024/04/26 07:58:16;;;;;;;30.80;29.80;;;20.90;1.00;;;;;;2612108;54;20166;-78
2024/04/26 08:00:43;;;;;;;29.20;28.20;;;20.90;1.00;;;;;;2613174;39;20563;-79
2024/04/26 08:03:09;;;;;;;30.00;29.00;;;20.90;1.00;;;;;;2612084;54;20269;-79
2024/04/26 08:05:35;;;;;;;30.07;29.07;;;20.90;1.00;;;;;;2612855;54;20921;-80
2024/04/26 08:08:00;;;;;;;30.97;29.97;;;20.90;1.00;;;;;;2612038;54;20238;-79
2024/04/26 08:10:26;;;;;;;30.30;29.30;;;20.90;1.00;;;;;;2611130;54;20131;-79
2024/04/26 08:12:52;;;;;;;31.80;30.70;;;20.80;1.00;;;;;;2611848;54;20153;-78
2024/04/26 08:15:18;;;;;;;29.87;28.87;;;20.80;1.00;;;;;;2612463;54;20138;-79
2024/04/26 08:17:43;;;;;;;29.80;28.80;;;20.80;1.00;;;;;;2612339;54;20163;-62
2024/04/26 08:20:12;;;;;;;29.73;28.73;;;20.80;1.00;;;;;;2611785;54;20147;-62
2024/04/26 08:22:39;;;;;;;30.60;29.60;;;20.80;1.00;;;;;;2612047;39;20842;-63
2024/04/26 08:25:05;;;;;;;30.33;29.33;;;20.80;1.00;;;;;;2611591;54;20423;-63
2024/04/26 08:27:30;;;;;;;29.80;28.80;;;20.70;1.00;;;;;;2612619;54;20398;-62
2024/04/26 08:29:56;;;;;;;30.70;29.70;;;20.70;1.00;;;;;;2612320;54;20731;-63
2024/04/26 08:32:25;;;;;;;30.57;29.57;;;20.60;1.00;;;;;;2611091;54;20182;-61
2024/04/26 08:34:52;;;;;;;30.50;29.50;;;20.60;1.00;;;;;;2610915;47;20178;-61
2024/04/26 08:37:20;;;;;;;30.17;29.17;;;20.60;1.00;;;;;;2612561;54;20403;-64
2024/04/26 08:39:46;;;;;;;29.33;28.33;;;20.60;1.00;;;;;;2611667;54;20387;-64
2024/04/26 08:42:14;;;;;;;30.80;29.80;;;20.60;1.00;;;;;;2612361;54;20424;-64
2024/04/26 08:44:42;;;;;;;30.33;29.33;;;20.60;1.00;;;;;;2611008;47;20423;-64
2024/04/26 08:47:11;;;;;;;31.57;30.57;;;20.70;1.00;;;;;;2611505;54;20507;-72
2024/04/26 08:49:41;;;;;;;30.30;29.30;;;20.70;1.00;;;;;;2611951;54;20428;-73
2024/04/26 08:52:08;;;;;;;30.10;29.10;;;20.80;1.00;;;;;;2612986;54;20392;-73
2024/04/26 08:54:34;;;;;;;29.70;28.70;;;21.00;1.00;;;;;;2611080;54;20415;-74
2024/04/26 08:57:04;;;;;;;30.10;29.10;;;21.30;1.00;;;;;;2611739;47;20453;-74
2024/04/26 08:59:40;;;;;;;30.20;29.20;;;21.60;1.00;;;;;;2612966;39;20934;-74
2024/04/26 09:02:06;;;;;;;28.57;27.67;;;22.00;1.00;;;;;;2612860;54;20387;-73
2024/04/26 09:04:32;;;;;;;30.10;29.10;;;22.40;1.00;;;;;;2613633;54;20403;-74
2024/04/26 09:06:58;;;;;;;30.30;29.30;;;22.70;1.00;;;;;;2613295;54;20146;-73
2024/04/26 09:09:23;;;;;;;29.23;28.33;;;23.10;1.00;;;;;;2611674;54;20171;-73
2024/04/26 09:11:49;;;;;;;30.90;29.90;;;23.40;1.00;;;;;;2612573;54;20190;-74
2024/04/26 09:14:17;;;;;;;30.67;29.67;;;23.70;1.00;;;;;;2612416;54;20147;-73
2024/04/26 09:16:46;;;;;;;28.60;27.70;;;23.90;1.00;;;;;;2612554;47;20167;-73
2024/04/26 09:19:12;;;;;;;30.43;29.43;;;24.00;1.00;;;;;;2612779;54;20425;-74
2024/04/26 09:21:38;;;;;;;30.27;29.27;;;24.20;1.00;;;;;;2612563;54;20936;-74
2024/04/26 09:24:04;;;;;;;29.60;28.60;;;24.40;1.00;;;;;;2612200;47;20189;-74
2024/04/26 09:26:30;;;;;;;30.10;29.10;;;24.60;1.00;;;;;;2612413;54;20925;-60
2024/04/26 09:28:56;;;;;;;29.20;28.20;;;24.70;1.00;;;;;;2612970;54;20655;-60
2024/04/26 09:31:22;;;;;;;31.30;30.30;;;24.80;1.00;;;;;;2612839;54;20494;-61
2024/04/26 09:33:54;;;;;;;30.63;29.63;;;24.80;1.00;;;;;;2612588;54;20964;-60
2024/04/26 09:36:25;;;;;;;28.63;27.73;;;24.90;1.00;;;;;;2612940;54;20147;-61
2024/04/26 09:38:54;;;;;;;30.50;29.50;;;25.10;1.00;;;;;;2612696;54;20398;-60
2024/04/26 09:41:21;;;;;;;30.43;29.33;;;25.20;1.00;;;;;;2612406;54;20399;-62
2024/04/26 09:43:49;;;;;;;30.40;29.30;;;25.40;1.00;;;;;;2612653;47;20410;-61
2024/04/26 09:46:17;;;;;;;29.90;28.80;;;25.50;1.00;;;;;;2613030;54;20514;-74
2024/04/26 09:48:44;;;;;;;29.77;28.67;;;25.60;1.00;;;;;;2612851;54;20404;-73
2024/04/26 09:51:12;;;;;;;29.07;27.97;;;25.50;1.00;;;;;;2614369;39;20719;-75
2024/04/26 09:53:42;;;;;;;30.60;29.50;;;25.40;1.00;;;;;;2612392;54;20519;-75
2024/04/26 09:56:09;;;;;;;31.00;29.90;;;25.40;1.00;;;;;;2612738;54;20487;-68
2024/04/26 09:58:35;;;;;;;29.53;28.43;;;25.30;1.00;;;;;;2612589;54;20441;-68
2024/04/26 10:01:04;;;;;;;30.00;28.90;;;25.10;1.00;;;;;;2611737;54;20392;-68
2024/04/26 10:03:32;;;;;;;28.80;27.70;;;25.10;1.00;;;;;;2613075;54;20882;-69
2024/04/26 10:06:03;;;;;;;29.80;28.70;;;25.00;1.00;;;;;;2612391;54;20403;-68
2024/04/26 10:08:35;;;;;;;29.17;28.07;;;24.90;1.00;;;;;;2612943;54;20388;-69
2024/04/26 10:11:15;;;;;;;29.00;28.00;;;24.80;1.00;;;;;;2612459;54;20407;-68
2024/04/26 10:13:53;;;;;;;29.70;28.60;;;24.70;1.00;;;;;;2613122;54;20431;-69
2024/04/26 10:16:37;;;;;;;28.80;27.80;;;24.60;1.00;;;;;;2613150;54;20435;-69
2024/04/26 10:19:15;;;;;;;29.00;28.00;;;24.50;1.00;;;;;;2612663;47;20427;-69
2024/04/26 10:21:42;;;;;;;30.63;29.53;;;24.30;1.00;;;;;;2613159;31;20856;-69
2024/04/26 10:24:08;;;;;;;35.07;33.10;;;24.20;1.00;;;;;;2613331;54;20403;-69
2024/04/26 10:26:34;;;;;;;29.20;28.20;;;24.10;1.00;;;;;;2612924;54;20411;-69
2024/04/26 10:29:13;;;;;;;29.33;28.23;;;23.90;1.00;;;;;;2612654;47;20534;-69
2024/04/26 10:31:39;;;;;;;29.47;28.47;;;23.80;1.00;;;;;;2613296;54;20425;-67
2024/04/26 10:34:18;;;;;;;29.00;28.00;;;23.70;1.00;;;;;;2613533;54;20400;-69
2024/04/26 10:36:47;;;;;;;28.00;27.00;;;23.60;1.00;;;;;;2613054;54;20438;-62
2024/04/26 10:39:25;;;;;;;28.77;27.77;;;23.50;1.00;;;;;;2611600;54;20416;-62
2024/04/26 10:41:51;;;;;;;29.90;28.80;;;23.50;1.00;;;;;;2610828;47;20560;-62
2024/04/26 10:44:17;;;;;;;29.70;28.60;;;23.50;1.00;;;;;;2611756;54;20419;-62
2024/04/26 10:46:43;;;;;;;30.30;29.20;;;23.40;1.00;;;;;;2612093;54;20250;-60
2024/04/26 10:49:12;;;;;;;29.70;28.60;;;23.30;1.00;;;;;;2611922;31;20635;-61
2024/04/26 10:51:38;;;;;;;28.80;27.80;;;23.30;1.00;;;;;;2611377;54;20423;-61
2024/04/26 10:54:04;;;;;;;29.80;28.70;;;23.30;1.00;;;;;;2610392;54;20502;-61
2024/04/26 10:56:40;;;;;;;29.13;28.10;;;23.20;1.00;;;;;;2611791;54;20166;-73
2024/04/26 10:59:18;;;;;;;29.30;28.30;;;23.10;1.00;;;;;;2611844;47;20170;-76
2024/04/26 11:01:45;;;;;;;30.30;29.20;;;23.10;1.00;;;;;;2611556;54;20419;-75
2024/04/26 11:04:17;;;;;;;30.50;29.40;;;23.10;1.00;;;;;;2612061;54;20409;-74
2024/04/26 11:06:44;;;;;;;30.07;28.97;;;23.00;1.00;;;;;;2612998;39;20899;-61
2024/04/26 11:09:11;;;;;;;39.77;37.90;;;23.00;1.00;;;;;;2611720;54;20431;-61
2024/04/26 11:11:38;;;;;;;30.80;29.70;;;22.90;1.00;;;;;;2611771;54;20442;-61
2024/04/26 11:14:05;;;;;;;37.97;35.00;;;22.90;1.00;;;;;;2612397;54;20407;-61
2024/04/26 11:16:34;;;;;;;30.00;28.90;;;22.80;1.00;;;;;;2612737;54;20392;-61
2024/04/26 11:19:00;;;;;;;30.13;29.03;;;22.80;1.00;;;;;;2611848;54;20960;-61
2024/04/26 11:21:26;;;;;;;32.23;31.03;;;22.80;1.00;;;;;;2611547;54;20495;-61
2024/04/26 11:23:51;;;;;;;30.43;29.33;;;22.70;1.00;;;;;;2611918;54;20419;-62
2024/04/26 11:26:17;;;;;;;31.33;30.23;;;22.70;1.00;;;;;;2611869;54;20937;-61
2024/04/26 11:28:43;;;;;;;28.50;27.50;;;22.60;1.00;;;;;;2612037;54;20159;-61
2024/04/26 11:31:09;;;;;;;29.90;28.80;;;22.60;1.00;;;;;;2612201;54;20462;-62
2024/04/26 11:33:35;;;;;;;30.40;29.30;;;22.60;1.00;;;;;;2610775;47;20171;-61
2024/04/26 11:36:01;;;;;;;28.87;27.87;;;22.50;1.00;;;;;;2611828;54;20519;-61
2024/04/26 11:38:26;;;;;;;30.57;29.47;;;22.50;1.00;;;;;;2611608;54;20238;-61
2024/04/26 11:40:52;;;;;;;29.73;28.70;;;22.50;1.00;;;;;;2611473;54;20270;-63
2024/04/26 11:43:18;;;;;;;30.23;29.13;;;22.50;1.00;;;;;;2610649;54;20177;-60
2024/04/26 11:45:44;;;;;;;29.87;28.80;;;22.40;1.00;;;;;;2611835;54;20222;-60
2024/04/26 11:48:09;;;;;;;29.70;28.70;;;22.40;1.00;;;;;;2610719;54;20158;-59
2024/04/26 11:50:35;;;;;;;29.80;28.70;;;22.40;1.00;;;;;;2611266;54;20181;-59
2024/04/26 11:53:01;;;;;;;30.17;29.07;;;22.40;1.00;;;;;;2612139;47;20197;-60
2024/04/26 11:55:27;;;;;;;29.90;28.90;;;22.40;1.00;;;;;;2611982;54;20429;-60
2024/04/26 11:57:53;;;;;;;29.90;28.80;;;22.30;1.00;;;;;;2610518;54;20174;-60
2024/04/26 12:00:19;;;;;;;29.80;28.70;;;22.30;1.00;;;;;;2612366;39;20770;-61
2024/04/26 12:02:44;;;;;;;29.30;28.30;;;22.30;1.00;;;;;;2610311;54;20170;-60
2024/04/26 12:05:10;;;;;;;30.50;29.40;;;22.30;1.00;;;;;;2612604;39;20808;-60
2024/04/26 12:07:36;;;;;;;29.47;28.47;;;22.30;1.00;;;;;;2612489;54;20174;-61
2024/04/26 12:10:02;;;;;;;29.27;28.27;;;22.30;1.00;;;;;;2612524;39;20584;-61
2024/04/26 12:12:28;;;;;;;29.77;28.67;;;22.30;1.00;;;;;;2611208;54;20165;-62
2024/04/26 12:14:53;;;;;;;30.17;29.07;;;22.20;1.00;;;;;;2611258;47;20177;-60
2024/04/26 12:17:20;;;;;;;30.10;29.00;;;22.20;1.00;;;;;;2612025;39;20501;-64
2024/04/26 12:19:45;;;;;;;29.73;28.67;;;22.20;1.00;;;;;;2612447;54;20170;-65
2024/04/26 12:22:11;;;;;;;29.67;28.67;;;22.20;1.00;;;;;;2612126;54;20534;-65
2024/04/26 12:24:37;;;;;;;28.97;27.97;;;22.20;1.00;;;;;;2612168;54;20234;-65
2024/04/26 12:27:06;;;;;;;28.90;27.90;;;22.20;1.00;;;;;;2612940;54;20411;-65
2024/04/26 12:29:32;;;;;;;29.63;28.63;;;22.20;1.00;;;;;;2612534;54;20177;-65
2024/04/26 12:31:58;;;;;;;27.77;26.87;;;22.20;1.00;;;;;;2612534;54;20415;-65